sensor_id;sensor_type;location;lat;lon;timestamp;temperature;humidity
7658;DHT22;8462;53.156;8.220;2022-11-20T00:00:18;4.50;81.70
7658;DHT22;8462;53.156;8.220;2022-11-20T00:02:44;4.50;81.50
7658;DHT22;8462;53.156;8.220;2022-11-20T00:05:11;4.50;81.40
7658;DHT22;8462;53.156;8.220;2022-11-20T00:07:40;4.50;81.80
7658;DHT22;8462;53.156;8.220;2022-11-20T00:10:07;4.50;81.90
7658;DHT22;8462;53.156;8.220;2022-11-20T00:12:34;4.50;81.50
7658;DHT22;8462;53.156;8.220;2022-11-20T00:15:01;4.50;81.50
7658;DHT22;8462;53.156;8.220;2022-11-20T00:17:28;4.50;81.90
7658;DHT22;8462;53.156;8.220;2022-11-20T00:19:55;4.50;81.90
7658;DHT22;8462;53.156;8.220;2022-11-20T00:22:22;4.50;81.70
7658;DHT22;8462;53.156;8.220;2022-11-20T00:24:50;4.60;81.60
7658;DHT22;8462;53.156;8.220;2022-11-20T00:27:18;4.60;81.50
7658;DHT22;8462;53.156;8.220;2022-11-20T00:29:44;4.50;81.50
7658;DHT22;8462;53.156;8.220;2022-11-20T00:32:12;4.50;81.70
7658;DHT22;8462;53.156;8.220;2022-11-20T00:34:39;4.50;81.50
7658;DHT22;8462;53.156;8.220;2022-11-20T00:37:05;4.50;81.60
7658;DHT22;8462;53.156;8.220;2022-11-20T00:39:32;4.60;81.60
7658;DHT22;8462;53.156;8.220;2022-11-20T00:42:00;4.60;81.50
7658;DHT22;8462;53.156;8.220;2022-11-20T00:44:27;4.60;81.30
7658;DHT22;8462;53.156;8.220;2022-11-20T00:46:54;4.50;81.50
7658;DHT22;8462;53.156;8.220;2022-11-20T00:49:21;4.50;81.30
7658;DHT22;8462;53.156;8.220;2022-11-20T00:51:48;4.50;81.30
7658;DHT22;8462;53.156;8.220;2022-11-20T00:54:15;4.50;81.30
7658;DHT22;8462;53.156;8.220;2022-11-20T00:56:42;4.60;81.30
7658;DHT22;8462;53.156;8.220;2022-11-20T00:59:10;4.60;81.30
7658;DHT22;8462;53.156;8.220;2022-11-20T01:01:37;4.50;80.80
7658;DHT22;8462;53.156;8.220;2022-11-20T01:04:04;4.50;81.10
7658;DHT22;8462;53.156;8.220;2022-11-20T01:06:33;4.50;81.60
7658;DHT22;8462;53.156;8.220;2022-11-20T01:09:03;4.60;81.50
7658;DHT22;8462;53.156;8.220;2022-11-20T01:11:32;4.60;80.90
7658;DHT22;8462;53.156;8.220;2022-11-20T01:14:00;4.50;81.10
7658;DHT22;8462;53.156;8.220;2022-11-20T01:16:32;4.50;80.90
7658;DHT22;8462;53.156;8.220;2022-11-20T01:19:05;4.50;81.20
7658;DHT22;8462;53.156;8.220;2022-11-20T01:21:34;4.50;81.20
7658;DHT22;8462;53.156;8.220;2022-11-20T01:24:04;4.50;81.10
7658;DHT22;8462;53.156;8.220;2022-11-20T01:26:34;4.50;81.10
7658;DHT22;8462;53.156;8.220;2022-11-20T01:29:03;4.50;81.10
7658;DHT22;8462;53.156;8.220;2022-11-20T01:31:33;4.40;81.20
7658;DHT22;8462;53.156;8.220;2022-11-20T01:34:05;4.50;81.40
7658;DHT22;8462;53.156;8.220;2022-11-20T01:36:34;4.40;81.40
7658;DHT22;8462;53.156;8.220;2022-11-20T01:39:05;4.40;81.40
7658;DHT22;8462;53.156;8.220;2022-11-20T01:41:33;4.40;81.50
7658;DHT22;8462;53.156;8.220;2022-11-20T01:44:20;4.50;81.60
7658;DHT22;8462;53.156;8.220;2022-11-20T01:46:55;4.50;81.70
7658;DHT22;8462;53.156;8.220;2022-11-20T01:49:26;4.50;81.30
7658;DHT22;8462;53.156;8.220;2022-11-20T01:51:57;4.50;81.40
7658;DHT22;8462;53.156;8.220;2022-11-20T01:54:30;4.50;81.30
7658;DHT22;8462;53.156;8.220;2022-11-20T01:56:59;4.50;81.40
7658;DHT22;8462;53.156;8.220;2022-11-20T01:59:29;4.50;81.50
7658;DHT22;8462;53.156;8.220;2022-11-20T02:01:57;4.50;81.50
7658;DHT22;8462;53.156;8.220;2022-11-20T02:04:24;4.60;81.70
7658;DHT22;8462;53.156;8.220;2022-11-20T02:06:57;4.60;81.50
7658;DHT22;8462;53.156;8.220;2022-11-20T02:09:26;4.60;81.60
7658;DHT22;8462;53.156;8.220;2022-11-20T02:11:53;4.60;81.30
7658;DHT22;8462;53.156;8.220;2022-11-20T02:14:21;4.70;81.40
7658;DHT22;8462;53.156;8.220;2022-11-20T02:16:48;4.70;81.20
7658;DHT22;8462;53.156;8.220;2022-11-20T02:19:24;4.70;81.10
7658;DHT22;8462;53.156;8.220;2022-11-20T02:21:57;4.70;81.20
7658;DHT22;8462;53.156;8.220;2022-11-20T02:24:27;4.70;81.40
7658;DHT22;8462;53.156;8.220;2022-11-20T02:26:57;4.70;81.10
7658;DHT22;8462;53.156;8.220;2022-11-20T02:29:32;4.70;81.00
7658;DHT22;8462;53.156;8.220;2022-11-20T02:32:01;4.70;80.90
7658;DHT22;8462;53.156;8.220;2022-11-20T02:34:28;4.70;80.70
7658;DHT22;8462;53.156;8.220;2022-11-20T02:36:56;4.70;80.70
7658;DHT22;8462;53.156;8.220;2022-11-20T02:39:26;4.60;80.60
7658;DHT22;8462;53.156;8.220;2022-11-20T02:41:56;4.60;80.60
7658;DHT22;8462;53.156;8.220;2022-11-20T02:44:23;4.60;81.60
7658;DHT22;8462;53.156;8.220;2022-11-20T02:46:50;4.70;80.90
7658;DHT22;8462;53.156;8.220;2022-11-20T02:49:17;4.70;80.70
7658;DHT22;8462;53.156;8.220;2022-11-20T02:51:44;4.70;80.50
7658;DHT22;8462;53.156;8.220;2022-11-20T02:54:11;4.70;80.30
7658;DHT22;8462;53.156;8.220;2022-11-20T02:56:39;4.70;80.70
7658;DHT22;8462;53.156;8.220;2022-11-20T02:59:06;4.70;80.10
7658;DHT22;8462;53.156;8.220;2022-11-20T03:01:34;4.70;80.40
7658;DHT22;8462;53.156;8.220;2022-11-20T03:04:01;4.70;80.10
7658;DHT22;8462;53.156;8.220;2022-11-20T03:06:28;4.70;80.10
7658;DHT22;8462;53.156;8.220;2022-11-20T03:08:55;4.70;80.20
7658;DHT22;8462;53.156;8.220;2022-11-20T03:11:22;4.80;79.90
7658;DHT22;8462;53.156;8.220;2022-11-20T03:13:50;4.80;80.00
7658;DHT22;8462;53.156;8.220;2022-11-20T03:16:19;4.80;79.80
7658;DHT22;8462;53.156;8.220;2022-11-20T03:18:46;4.80;79.70
7658;DHT22;8462;53.156;8.220;2022-11-20T03:21:14;4.70;79.70
7658;DHT22;8462;53.156;8.220;2022-11-20T03:23:42;4.80;79.80
7658;DHT22;8462;53.156;8.220;2022-11-20T03:26:10;4.80;79.50
7658;DHT22;8462;53.156;8.220;2022-11-20T03:28:38;4.80;79.60
7658;DHT22;8462;53.156;8.220;2022-11-20T03:31:08;4.80;79.50
7658;DHT22;8462;53.156;8.220;2022-11-20T03:33:35;4.80;79.50
7658;DHT22;8462;53.156;8.220;2022-11-20T03:36:03;4.70;79.30
7658;DHT22;8462;53.156;8.220;2022-11-20T03:38:30;4.70;79.50
7658;DHT22;8462;53.156;8.220;2022-11-20T03:40:59;4.60;79.70
7658;DHT22;8462;53.156;8.220;2022-11-20T03:43:26;4.60;79.70
7658;DHT22;8462;53.156;8.220;2022-11-20T03:45:53;4.60;79.70
7658;DHT22;8462;53.156;8.220;2022-11-20T03:48:21;4.60;79.60
7658;DHT22;8462;53.156;8.220;2022-11-20T03:50:48;4.60;79.80
7658;DHT22;8462;53.156;8.220;2022-11-20T03:53:16;4.60;79.90
7658;DHT22;8462;53.156;8.220;2022-11-20T03:55:43;4.60;79.90
7658;DHT22;8462;53.156;8.220;2022-11-20T03:58:10;4.60;80.00
7658;DHT22;8462;53.156;8.220;2022-11-20T04:00:37;4.60;80.10
7658;DHT22;8462;53.156;8.220;2022-11-20T04:03:04;4.60;80.30
7658;DHT22;8462;53.156;8.220;2022-11-20T04:05:33;4.60;80.40
7658;DHT22;8462;53.156;8.220;2022-11-20T04:08:00;4.60;80.10
7658;DHT22;8462;53.156;8.220;2022-11-20T04:10:27;4.60;80.20
7658;DHT22;8462;53.156;8.220;2022-11-20T04:12:53;4.60;80.00
7658;DHT22;8462;53.156;8.220;2022-11-20T04:15:20;4.50;80.10
7658;DHT22;8462;53.156;8.220;2022-11-20T04:17:47;4.50;80.80
7658;DHT22;8462;53.156;8.220;2022-11-20T04:20:14;4.50;80.90
7658;DHT22;8462;53.156;8.220;2022-11-20T04:22:42;4.50;80.90
7658;DHT22;8462;53.156;8.220;2022-11-20T04:25:09;4.50;81.00
7658;DHT22;8462;53.156;8.220;2022-11-20T04:27:36;4.60;81.30
7658;DHT22;8462;53.156;8.220;2022-11-20T04:30:04;4.60;81.50
7658;DHT22;8462;53.156;8.220;2022-11-20T04:32:31;4.60;81.60
7658;DHT22;8462;53.156;8.220;2022-11-20T04:34:58;4.60;81.80
7658;DHT22;8462;53.156;8.220;2022-11-20T04:37:25;4.60;81.90
7658;DHT22;8462;53.156;8.220;2022-11-20T04:39:53;4.70;81.90
7658;DHT22;8462;53.156;8.220;2022-11-20T04:42:20;4.60;82.00
7658;DHT22;8462;53.156;8.220;2022-11-20T04:44:56;4.70;82.20
7658;DHT22;8462;53.156;8.220;2022-11-20T04:47:23;4.80;82.00
7658;DHT22;8462;53.156;8.220;2022-11-20T04:49:50;4.80;81.80
7658;DHT22;8462;53.156;8.220;2022-11-20T04:52:18;4.80;81.80
7658;DHT22;8462;53.156;8.220;2022-11-20T04:54:44;4.80;81.90
7658;DHT22;8462;53.156;8.220;2022-11-20T04:57:14;4.70;81.70
7658;DHT22;8462;53.156;8.220;2022-11-20T04:59:41;4.80;81.80
7658;DHT22;8462;53.156;8.220;2022-11-20T05:02:08;4.80;82.00
7658;DHT22;8462;53.156;8.220;2022-11-20T05:04:35;4.70;81.80
7658;DHT22;8462;53.156;8.220;2022-11-20T05:07:02;4.70;81.90
7658;DHT22;8462;53.156;8.220;2022-11-20T05:09:29;4.70;81.80
7658;DHT22;8462;53.156;8.220;2022-11-20T05:11:56;4.60;81.80
7658;DHT22;8462;53.156;8.220;2022-11-20T05:14:24;4.70;82.00
7658;DHT22;8462;53.156;8.220;2022-11-20T05:16:51;4.70;82.00
7658;DHT22;8462;53.156;8.220;2022-11-20T05:19:19;4.70;81.80
7658;DHT22;8462;53.156;8.220;2022-11-20T05:21:46;4.70;81.80
7658;DHT22;8462;53.156;8.220;2022-11-20T05:24:13;4.70;81.70
7658;DHT22;8462;53.156;8.220;2022-11-20T05:26:39;4.70;81.70
7658;DHT22;8462;53.156;8.220;2022-11-20T05:29:06;4.70;81.60
7658;DHT22;8462;53.156;8.220;2022-11-20T05:31:35;4.70;81.80
7658;DHT22;8462;53.156;8.220;2022-11-20T05:34:02;4.60;81.80
7658;DHT22;8462;53.156;8.220;2022-11-20T05:36:30;4.60;81.90
7658;DHT22;8462;53.156;8.220;2022-11-20T05:38:57;4.60;82.00
7658;DHT22;8462;53.156;8.220;2022-11-20T05:41:24;4.70;81.80
7658;DHT22;8462;53.156;8.220;2022-11-20T05:43:51;4.60;81.70
7658;DHT22;8462;53.156;8.220;2022-11-20T05:46:20;4.60;81.70
7658;DHT22;8462;53.156;8.220;2022-11-20T05:48:49;4.60;81.90
7658;DHT22;8462;53.156;8.220;2022-11-20T05:51:18;4.70;81.70
7658;DHT22;8462;53.156;8.220;2022-11-20T05:53:45;4.70;81.50
7658;DHT22;8462;53.156;8.220;2022-11-20T05:56:13;4.70;81.40
7658;DHT22;8462;53.156;8.220;2022-11-20T05:58:41;4.70;81.20
7658;DHT22;8462;53.156;8.220;2022-11-20T06:01:10;4.80;82.10
7658;DHT22;8462;53.156;8.220;2022-11-20T06:03:38;4.70;81.10
7658;DHT22;8462;53.156;8.220;2022-11-20T06:06:07;4.70;81.00
7658;DHT22;8462;53.156;8.220;2022-11-20T06:08:34;4.70;81.30
7658;DHT22;8462;53.156;8.220;2022-11-20T06:11:05;4.70;81.30
7658;DHT22;8462;53.156;8.220;2022-11-20T06:13:32;4.80;81.20
7658;DHT22;8462;53.156;8.220;2022-11-20T06:15:59;4.70;81.00
7658;DHT22;8462;53.156;8.220;2022-11-20T06:18:28;4.70;80.90
7658;DHT22;8462;53.156;8.220;2022-11-20T06:21:03;4.70;80.90
7658;DHT22;8462;53.156;8.220;2022-11-20T06:23:33;4.70;81.10
7658;DHT22;8462;53.156;8.220;2022-11-20T06:26:02;4.60;81.20
7658;DHT22;8462;53.156;8.220;2022-11-20T06:28:29;4.70;81.20
7658;DHT22;8462;53.156;8.220;2022-11-20T06:30:56;4.70;81.10
7658;DHT22;8462;53.156;8.220;2022-11-20T06:33:24;4.70;80.80
7658;DHT22;8462;53.156;8.220;2022-11-20T06:35:51;4.60;81.00
7658;DHT22;8462;53.156;8.220;2022-11-20T06:38:18;4.70;81.10
7658;DHT22;8462;53.156;8.220;2022-11-20T06:40:46;4.70;81.10
7658;DHT22;8462;53.156;8.220;2022-11-20T06:43:13;4.70;81.00
7658;DHT22;8462;53.156;8.220;2022-11-20T06:45:40;4.70;80.90
7658;DHT22;8462;53.156;8.220;2022-11-20T06:48:07;4.70;80.80
7658;DHT22;8462;53.156;8.220;2022-11-20T06:50:36;4.70;80.90
7658;DHT22;8462;53.156;8.220;2022-11-20T06:53:04;4.70;80.70
7658;DHT22;8462;53.156;8.220;2022-11-20T06:55:31;4.70;80.30
7658;DHT22;8462;53.156;8.220;2022-11-20T06:58:00;4.70;80.60
7658;DHT22;8462;53.156;8.220;2022-11-20T07:00:26;4.80;80.20
7658;DHT22;8462;53.156;8.220;2022-11-20T07:02:53;4.80;80.30
7658;DHT22;8462;53.156;8.220;2022-11-20T07:05:20;4.80;80.10
7658;DHT22;8462;53.156;8.220;2022-11-20T07:07:47;4.70;80.10
7658;DHT22;8462;53.156;8.220;2022-11-20T07:10:14;4.80;80.10
7658;DHT22;8462;53.156;8.220;2022-11-20T07:12:41;4.80;79.70
7658;DHT22;8462;53.156;8.220;2022-11-20T07:15:10;4.70;79.70
7658;DHT22;8462;53.156;8.220;2022-11-20T07:17:37;4.70;80.10
7658;DHT22;8462;53.156;8.220;2022-11-20T07:20:04;4.80;80.60
7658;DHT22;8462;53.156;8.220;2022-11-20T07:22:31;4.80;80.00
7658;DHT22;8462;53.156;8.220;2022-11-20T07:24:58;4.80;79.80
7658;DHT22;8462;53.156;8.220;2022-11-20T07:27:25;4.70;79.80
7658;DHT22;8462;53.156;8.220;2022-11-20T07:29:52;4.80;79.70
7658;DHT22;8462;53.156;8.220;2022-11-20T07:32:21;4.70;79.40
7658;DHT22;8462;53.156;8.220;2022-11-20T07:34:48;4.70;79.40
7658;DHT22;8462;53.156;8.220;2022-11-20T07:37:15;4.70;79.40
7658;DHT22;8462;53.156;8.220;2022-11-20T07:39:42;4.60;79.40
7658;DHT22;8462;53.156;8.220;2022-11-20T07:42:09;4.60;79.60
7658;DHT22;8462;53.156;8.220;2022-11-20T07:44:38;4.60;80.00
7658;DHT22;8462;53.156;8.220;2022-11-20T07:47:05;4.70;80.10
7658;DHT22;8462;53.156;8.220;2022-11-20T07:49:33;4.70;80.00
7658;DHT22;8462;53.156;8.220;2022-11-20T07:52:00;4.70;79.90
7658;DHT22;8462;53.156;8.220;2022-11-20T07:54:27;4.80;79.70
7658;DHT22;8462;53.156;8.220;2022-11-20T07:56:54;4.80;79.90
7658;DHT22;8462;53.156;8.220;2022-11-20T07:59:21;4.90;79.90
7658;DHT22;8462;53.156;8.220;2022-11-20T08:01:47;4.90;79.20
7658;DHT22;8462;53.156;8.220;2022-11-20T08:04:15;4.90;79.70
7658;DHT22;8462;53.156;8.220;2022-11-20T08:06:44;5.00;79.10
7658;DHT22;8462;53.156;8.220;2022-11-20T08:09:14;5.00;78.60
7658;DHT22;8462;53.156;8.220;2022-11-20T08:11:41;4.90;78.40
7658;DHT22;8462;53.156;8.220;2022-11-20T08:14:26;4.90;78.70
7658;DHT22;8462;53.156;8.220;2022-11-20T08:16:53;5.00;79.10
7658;DHT22;8462;53.156;8.220;2022-11-20T08:19:20;5.00;78.80
7658;DHT22;8462;53.156;8.220;2022-11-20T08:21:48;5.00;78.60
7658;DHT22;8462;53.156;8.220;2022-11-20T08:24:15;5.10;79.00
7658;DHT22;8462;53.156;8.220;2022-11-20T08:26:42;5.10;78.10
7658;DHT22;8462;53.156;8.220;2022-11-20T08:29:09;5.10;78.40
7658;DHT22;8462;53.156;8.220;2022-11-20T08:31:36;5.10;78.40
7658;DHT22;8462;53.156;8.220;2022-11-20T08:34:03;5.10;78.20
7658;DHT22;8462;53.156;8.220;2022-11-20T08:36:33;5.10;78.00
7658;DHT22;8462;53.156;8.220;2022-11-20T08:39:02;5.10;78.20
7658;DHT22;8462;53.156;8.220;2022-11-20T08:41:29;5.10;78.60
7658;DHT22;8462;53.156;8.220;2022-11-20T08:44:00;5.20;78.60
7658;DHT22;8462;53.156;8.220;2022-11-20T08:46:31;5.30;78.20
7658;DHT22;8462;53.156;8.220;2022-11-20T08:48:59;5.40;78.10
7658;DHT22;8462;53.156;8.220;2022-11-20T08:51:26;5.40;77.50
7658;DHT22;8462;53.156;8.220;2022-11-20T08:53:53;5.50;77.10
7658;DHT22;8462;53.156;8.220;2022-11-20T08:56:21;5.50;76.80
7658;DHT22;8462;53.156;8.220;2022-11-20T08:58:49;5.40;76.60
7658;DHT22;8462;53.156;8.220;2022-11-20T09:01:17;5.40;76.90
7658;DHT22;8462;53.156;8.220;2022-11-20T09:03:44;5.40;77.30
7658;DHT22;8462;53.156;8.220;2022-11-20T09:06:11;5.40;76.90
7658;DHT22;8462;53.156;8.220;2022-11-20T09:08:38;5.40;77.10
7658;DHT22;8462;53.156;8.220;2022-11-20T09:11:05;5.50;79.40
7658;DHT22;8462;53.156;8.220;2022-11-20T09:13:35;5.60;81.60
7658;DHT22;8462;53.156;8.220;2022-11-20T09:16:04;5.80;79.60
7658;DHT22;8462;53.156;8.220;2022-11-20T09:18:32;5.90;81.10
7658;DHT22;8462;53.156;8.220;2022-11-20T09:21:00;6.00;82.30
7658;DHT22;8462;53.156;8.220;2022-11-20T09:23:27;6.10;80.20
7658;DHT22;8462;53.156;8.220;2022-11-20T09:25:54;6.30;79.10
7658;DHT22;8462;53.156;8.220;2022-11-20T09:28:25;6.40;80.70
7658;DHT22;8462;53.156;8.220;2022-11-20T09:30:53;6.50;79.90
7658;DHT22;8462;53.156;8.220;2022-11-20T09:33:20;6.70;79.30
7658;DHT22;8462;53.156;8.220;2022-11-20T09:35:49;6.70;76.60
7658;DHT22;8462;53.156;8.220;2022-11-20T09:38:16;6.60;73.90
7658;DHT22;8462;53.156;8.220;2022-11-20T09:40:46;6.50;73.10
7658;DHT22;8462;53.156;8.220;2022-11-20T09:43:18;6.40;73.70
7658;DHT22;8462;53.156;8.220;2022-11-20T09:46:04;6.30;73.10
7658;DHT22;8462;53.156;8.220;2022-11-20T09:49:00;6.20;73.40
7658;DHT22;8462;53.156;8.220;2022-11-20T09:51:40;6.20;74.00
7658;DHT22;8462;53.156;8.220;2022-11-20T09:54:16;6.20;74.40
7658;DHT22;8462;53.156;8.220;2022-11-20T09:56:46;6.20;73.70
7658;DHT22;8462;53.156;8.220;2022-11-20T09:59:32;6.10;74.00
7658;DHT22;8462;53.156;8.220;2022-11-20T10:02:03;6.10;73.90
7658;DHT22;8462;53.156;8.220;2022-11-20T10:04:43;6.10;74.00
7658;DHT22;8462;53.156;8.220;2022-11-20T10:07:15;6.10;73.50
7658;DHT22;8462;53.156;8.220;2022-11-20T10:09:49;6.10;74.20
7658;DHT22;8462;53.156;8.220;2022-11-20T10:12:21;6.10;73.90
7658;DHT22;8462;53.156;8.220;2022-11-20T10:15:01;6.10;73.60
7658;DHT22;8462;53.156;8.220;2022-11-20T10:17:52;6.10;73.20
7658;DHT22;8462;53.156;8.220;2022-11-20T10:20:28;6.10;72.40
7658;DHT22;8462;53.156;8.220;2022-11-20T10:23:19;6.10;73.20
7658;DHT22;8462;53.156;8.220;2022-11-20T10:25:56;6.10;73.30
7658;DHT22;8462;53.156;8.220;2022-11-20T10:28:34;6.20;72.80
7658;DHT22;8462;53.156;8.220;2022-11-20T10:31:08;6.20;72.90
7658;DHT22;8462;53.156;8.220;2022-11-20T10:33:40;6.30;72.20
7658;DHT22;8462;53.156;8.220;2022-11-20T10:36:15;6.30;71.40
7658;DHT22;8462;53.156;8.220;2022-11-20T10:38:45;6.30;71.50
7658;DHT22;8462;53.156;8.220;2022-11-20T10:41:20;6.40;71.00
7658;DHT22;8462;53.156;8.220;2022-11-20T10:44:00;6.50;70.80
7658;DHT22;8462;53.156;8.220;2022-11-20T10:46:39;6.50;69.70
7658;DHT22;8462;53.156;8.220;2022-11-20T10:49:13;6.50;69.30
7658;DHT22;8462;53.156;8.220;2022-11-20T10:51:52;6.50;69.50
7658;DHT22;8462;53.156;8.220;2022-11-20T10:54:31;6.60;69.50
7658;DHT22;8462;53.156;8.220;2022-11-20T10:57:07;6.70;70.10
7658;DHT22;8462;53.156;8.220;2022-11-20T10:59:55;6.70;70.00
7658;DHT22;8462;53.156;8.220;2022-11-20T11:02:32;6.90;70.20
7658;DHT22;8462;53.156;8.220;2022-11-20T11:05:08;7.00;69.60
7658;DHT22;8462;53.156;8.220;2022-11-20T11:07:38;7.10;69.10
7658;DHT22;8462;53.156;8.220;2022-11-20T11:10:15;7.20;68.80
7658;DHT22;8462;53.156;8.220;2022-11-20T11:12:44;7.20;68.20
7658;DHT22;8462;53.156;8.220;2022-11-20T11:15:15;7.20;67.80
7658;DHT22;8462;53.156;8.220;2022-11-20T11:17:50;7.20;67.80
7658;DHT22;8462;53.156;8.220;2022-11-20T11:20:20;7.20;67.40
7658;DHT22;8462;53.156;8.220;2022-11-20T11:22:49;7.20;67.30
7658;DHT22;8462;53.156;8.220;2022-11-20T11:25:28;7.30;67.90
7658;DHT22;8462;53.156;8.220;2022-11-20T11:27:57;7.40;68.00
7658;DHT22;8462;53.156;8.220;2022-11-20T11:30:25;7.60;67.20
7658;DHT22;8462;53.156;8.220;2022-11-20T11:33:03;7.60;66.00
7658;DHT22;8462;53.156;8.220;2022-11-20T11:35:33;7.60;65.80
7658;DHT22;8462;53.156;8.220;2022-11-20T11:38:04;7.40;65.50
7658;DHT22;8462;53.156;8.220;2022-11-20T11:40:34;7.40;66.40
7658;DHT22;8462;53.156;8.220;2022-11-20T11:43:05;7.40;66.00
7658;DHT22;8462;53.156;8.220;2022-11-20T11:45:54;7.40;65.80
7658;DHT22;8462;53.156;8.220;2022-11-20T11:48:20;7.40;65.80
7658;DHT22;8462;53.156;8.220;2022-11-20T11:50:50;7.40;65.80
7658;DHT22;8462;53.156;8.220;2022-11-20T11:53:19;7.30;66.10
7658;DHT22;8462;53.156;8.220;2022-11-20T11:55:54;7.30;65.90
7658;DHT22;8462;53.156;8.220;2022-11-20T11:58:34;7.20;66.50
7658;DHT22;8462;53.156;8.220;2022-11-20T12:01:13;7.10;66.80
7658;DHT22;8462;53.156;8.220;2022-11-20T12:03:42;7.10;67.10
7658;DHT22;8462;53.156;8.220;2022-11-20T12:06:14;7.10;67.50
7658;DHT22;8462;53.156;8.220;2022-11-20T12:08:46;7.20;67.30
7658;DHT22;8462;53.156;8.220;2022-11-20T12:11:18;7.20;67.30
7658;DHT22;8462;53.156;8.220;2022-11-20T12:13:53;7.10;67.10
7658;DHT22;8462;53.156;8.220;2022-11-20T12:16:20;7.10;67.10
7658;DHT22;8462;53.156;8.220;2022-11-20T12:18:49;7.20;67.60
7658;DHT22;8462;53.156;8.220;2022-11-20T12:21:28;7.20;67.30
7658;DHT22;8462;53.156;8.220;2022-11-20T12:24:10;7.20;67.50
7658;DHT22;8462;53.156;8.220;2022-11-20T12:26:54;7.20;67.70
7658;DHT22;8462;53.156;8.220;2022-11-20T12:29:33;7.10;68.20
7658;DHT22;8462;53.156;8.220;2022-11-20T12:35:07;7.10;68.60
7658;DHT22;8462;53.156;8.220;2022-11-20T12:37:45;7.10;68.60
7658;DHT22;8462;53.156;8.220;2022-11-20T12:40:27;7.00;68.80
7658;DHT22;8462;53.156;8.220;2022-11-20T12:43:06;7.00;69.70
7658;DHT22;8462;53.156;8.220;2022-11-20T12:46:05;7.00;69.30
7658;DHT22;8462;53.156;8.220;2022-11-20T12:49:05;7.00;69.40
7658;DHT22;8462;53.156;8.220;2022-11-20T12:51:53;6.90;69.70
7658;DHT22;8462;53.156;8.220;2022-11-20T12:54:50;6.80;70.00
7658;DHT22;8462;53.156;8.220;2022-11-20T12:57:24;6.70;69.60
7658;DHT22;8462;53.156;8.220;2022-11-20T13:00:07;6.60;70.10
7658;DHT22;8462;53.156;8.220;2022-11-20T13:05:31;6.60;70.60
7658;DHT22;8462;53.156;8.220;2022-11-20T13:08:02;6.50;70.50
7658;DHT22;8462;53.156;8.220;2022-11-20T13:10:35;6.50;71.00
7658;DHT22;8462;53.156;8.220;2022-11-20T13:13:10;6.50;71.00
7658;DHT22;8462;53.156;8.220;2022-11-20T13:15:47;6.50;71.80
7658;DHT22;8462;53.156;8.220;2022-11-20T13:18:17;6.50;71.10
7658;DHT22;8462;53.156;8.220;2022-11-20T13:20:45;6.50;71.00
7658;DHT22;8462;53.156;8.220;2022-11-20T13:23:23;6.60;70.70
7658;DHT22;8462;53.156;8.220;2022-11-20T13:26:04;6.80;70.70
7658;DHT22;8462;53.156;8.220;2022-11-20T13:28:31;6.90;70.00
7658;DHT22;8462;53.156;8.220;2022-11-20T13:30:58;7.00;69.40
7658;DHT22;8462;53.156;8.220;2022-11-20T13:33:32;7.10;68.10
7658;DHT22;8462;53.156;8.220;2022-11-20T13:36:02;7.20;68.50
7658;DHT22;8462;53.156;8.220;2022-11-20T13:38:41;7.30;67.50
7658;DHT22;8462;53.156;8.220;2022-11-20T13:41:10;7.40;67.30
7658;DHT22;8462;53.156;8.220;2022-11-20T13:44:09;7.40;67.10
7658;DHT22;8462;53.156;8.220;2022-11-20T13:46:39;7.50;66.20
7658;DHT22;8462;53.156;8.220;2022-11-20T13:49:10;7.50;66.70
7658;DHT22;8462;53.156;8.220;2022-11-20T13:51:44;7.60;66.20
7658;DHT22;8462;53.156;8.220;2022-11-20T13:54:52;7.60;65.20
7658;DHT22;8462;53.156;8.220;2022-11-20T14:00:22;7.50;65.40
7658;DHT22;8462;53.156;8.220;2022-11-20T14:02:59;7.40;65.30
7658;DHT22;8462;53.156;8.220;2022-11-20T14:05:32;7.40;65.40
7658;DHT22;8462;53.156;8.220;2022-11-20T14:08:03;7.30;65.80
7658;DHT22;8462;53.156;8.220;2022-11-20T14:10:34;7.30;65.60
7658;DHT22;8462;53.156;8.220;2022-11-20T14:13:16;7.30;65.30
7658;DHT22;8462;53.156;8.220;2022-11-20T14:15:44;7.20;65.50
7658;DHT22;8462;53.156;8.220;2022-11-20T14:18:14;7.20;65.70
7658;DHT22;8462;53.156;8.220;2022-11-20T14:20:41;7.10;66.10
7658;DHT22;8462;53.156;8.220;2022-11-20T14:23:10;7.00;66.30
7658;DHT22;8462;53.156;8.220;2022-11-20T14:25:42;6.90;66.80
7658;DHT22;8462;53.156;8.220;2022-11-20T14:28:18;6.80;66.90
7658;DHT22;8462;53.156;8.220;2022-11-20T14:30:47;6.70;67.20
7658;DHT22;8462;53.156;8.220;2022-11-20T14:33:16;6.70;66.80
7658;DHT22;8462;53.156;8.220;2022-11-20T14:35:46;6.60;67.00
7658;DHT22;8462;53.156;8.220;2022-11-20T14:38:15;6.60;67.00
7658;DHT22;8462;53.156;8.220;2022-11-20T14:40:43;6.60;66.90
7658;DHT22;8462;53.156;8.220;2022-11-20T14:43:21;6.50;66.60
7658;DHT22;8462;53.156;8.220;2022-11-20T14:45:54;6.50;66.50
7658;DHT22;8462;53.156;8.220;2022-11-20T14:48:25;6.40;66.40
7658;DHT22;8462;53.156;8.220;2022-11-20T14:50:54;6.30;66.10
7658;DHT22;8462;53.156;8.220;2022-11-20T14:53:22;6.30;66.50
7658;DHT22;8462;53.156;8.220;2022-11-20T14:55:55;6.30;66.10
7658;DHT22;8462;53.156;8.220;2022-11-20T14:58:25;6.30;66.00
7658;DHT22;8462;53.156;8.220;2022-11-20T15:00:57;6.20;66.10
7658;DHT22;8462;53.156;8.220;2022-11-20T15:03:31;6.10;66.40
7658;DHT22;8462;53.156;8.220;2022-11-20T15:05:59;6.20;66.70
7658;DHT22;8462;53.156;8.220;2022-11-20T15:09:40;6.10;66.50
7658;DHT22;8462;53.156;8.220;2022-11-20T15:13:29;6.00;67.30
7658;DHT22;8462;53.156;8.220;2022-11-20T15:17:11;5.80;68.60
7658;DHT22;8462;53.156;8.220;2022-11-20T15:19:38;5.50;68.90
7658;DHT22;8462;53.156;8.220;2022-11-20T15:22:09;5.40;69.20
7658;DHT22;8462;53.156;8.220;2022-11-20T15:24:38;5.20;69.40
7658;DHT22;8462;53.156;8.220;2022-11-20T15:27:07;5.10;69.40
7658;DHT22;8462;53.156;8.220;2022-11-20T15:29:36;5.10;69.60
7658;DHT22;8462;53.156;8.220;2022-11-20T15:32:03;5.00;69.60
7658;DHT22;8462;53.156;8.220;2022-11-20T15:34:30;5.00;69.80
7658;DHT22;8462;53.156;8.220;2022-11-20T15:36:57;4.90;69.90
7658;DHT22;8462;53.156;8.220;2022-11-20T15:39:24;4.90;70.20
7658;DHT22;8462;53.156;8.220;2022-11-20T15:41:51;4.80;70.20
7658;DHT22;8462;53.156;8.220;2022-11-20T15:44:18;4.80;70.30
7658;DHT22;8462;53.156;8.220;2022-11-20T15:46:47;4.70;70.30
7658;DHT22;8462;53.156;8.220;2022-11-20T15:49:15;4.70;70.40
7658;DHT22;8462;53.156;8.220;2022-11-20T15:51:47;4.60;70.50
7658;DHT22;8462;53.156;8.220;2022-11-20T15:54:17;4.60;70.50
7658;DHT22;8462;53.156;8.220;2022-11-20T15:56:45;4.60;70.40
7658;DHT22;8462;53.156;8.220;2022-11-20T15:59:13;4.50;70.40
7658;DHT22;8462;53.156;8.220;2022-11-20T16:01:41;4.40;70.90
7658;DHT22;8462;53.156;8.220;2022-11-20T16:04:11;4.30;71.00
7658;DHT22;8462;53.156;8.220;2022-11-20T16:06:39;4.30;71.30
7658;DHT22;8462;53.156;8.220;2022-11-20T16:09:06;4.30;71.40
7658;DHT22;8462;53.156;8.220;2022-11-20T16:11:33;4.20;71.30
7658;DHT22;8462;53.156;8.220;2022-11-20T16:14:01;4.20;71.30
7658;DHT22;8462;53.156;8.220;2022-11-20T16:16:45;4.10;71.50
7658;DHT22;8462;53.156;8.220;2022-11-20T16:19:14;4.10;71.60
7658;DHT22;8462;53.156;8.220;2022-11-20T16:21:42;4.00;71.60
7658;DHT22;8462;53.156;8.220;2022-11-20T16:24:10;4.00;71.60
7658;DHT22;8462;53.156;8.220;2022-11-20T16:26:38;4.00;71.80
7658;DHT22;8462;53.156;8.220;2022-11-20T16:29:06;4.00;71.90
7658;DHT22;8462;53.156;8.220;2022-11-20T16:31:34;3.90;72.20
7658;DHT22;8462;53.156;8.220;2022-11-20T16:34:04;3.90;72.40
7658;DHT22;8462;53.156;8.220;2022-11-20T16:36:33;3.90;72.60
7658;DHT22;8462;53.156;8.220;2022-11-20T16:39:01;3.90;72.40
7658;DHT22;8462;53.156;8.220;2022-11-20T16:41:30;3.90;72.40
7658;DHT22;8462;53.156;8.220;2022-11-20T16:44:00;3.90;72.60
7658;DHT22;8462;53.156;8.220;2022-11-20T16:46:28;4.00;72.90
7658;DHT22;8462;53.156;8.220;2022-11-20T16:48:57;4.00;72.90